sensor_id;sensor_type;location;lat;lon;timestamp;temperature;humidity
52941;DHT22;62001;53.366;6.636;2022-11-18T00:00:46;6.20;99.90
52941;DHT22;62001;53.366;6.636;2022-11-18T00:03:12;6.10;99.90
52941;DHT22;62001;53.366;6.636;2022-11-18T00:05:38;6.20;99.90
52941;DHT22;62001;53.366;6.636;2022-11-18T00:08:04;6.10;99.90
52941;DHT22;62001;53.366;6.636;2022-11-18T00:10:30;6.10;99.90
52941;DHT22;62001;53.366;6.636;2022-11-18T00:12:56;6.10;99.90
52941;DHT22;62001;53.366;6.636;2022-11-18T00:15:41;6.10;99.90
52941;DHT22;62001;53.366;6.636;2022-11-18T00:18:07;6.10;99.90
52941;DHT22;62001;53.366;6.636;2022-11-18T00:20:33;6.10;99.90
52941;DHT22;62001;53.366;6.636;2022-11-18T00:22:59;6.10;99.90
52941;DHT22;62001;53.366;6.636;2022-11-18T00:25:26;6.10;99.90
52941;DHT22;62001;53.366;6.636;2022-11-18T00:27:53;6.10;99.90
52941;DHT22;62001;53.366;6.636;2022-11-18T00:30:19;6.10;99.90
52941;DHT22;62001;53.366;6.636;2022-11-18T00:32:45;6.10;99.90
52941;DHT22;62001;53.366;6.636;2022-11-18T00:35:10;6.10;99.90
52941;DHT22;62001;53.366;6.636;2022-11-18T00:37:36;6.10;99.90
52941;DHT22;62001;53.366;6.636;2022-11-18T00:40:02;6.10;99.90
52941;DHT22;62001;53.366;6.636;2022-11-18T00:42:28;6.10;99.90
52941;DHT22;62001;53.366;6.636;2022-11-18T00:45:12;6.00;99.90
52941;DHT22;62001;53.366;6.636;2022-11-18T00:47:38;6.00;99.90
52941;DHT22;62001;53.366;6.636;2022-11-18T00:50:04;6.00;99.90
52941;DHT22;62001;53.366;6.636;2022-11-18T00:52:30;6.00;99.90
52941;DHT22;62001;53.366;6.636;2022-11-18T00:54:56;6.00;99.90
52941;DHT22;62001;53.366;6.636;2022-11-18T00:57:21;6.00;99.90
52941;DHT22;62001;53.366;6.636;2022-11-18T00:59:47;6.00;99.90
52941;DHT22;62001;53.366;6.636;2022-11-18T01:02:13;6.00;99.90
52941;DHT22;62001;53.366;6.636;2022-11-18T01:04:39;6.00;99.90
52941;DHT22;62001;53.366;6.636;2022-11-18T01:07:05;6.00;99.90
52941;DHT22;62001;53.366;6.636;2022-11-18T01:09:31;6.00;99.90
52941;DHT22;62001;53.366;6.636;2022-11-18T01:11:57;6.00;99.90
52941;DHT22;62001;53.366;6.636;2022-11-18T01:14:58;6.00;99.90
52941;DHT22;62001;53.366;6.636;2022-11-18T01:17:24;6.00;99.90
52941;DHT22;62001;53.366;6.636;2022-11-18T01:19:50;5.90;99.90
52941;DHT22;62001;53.366;6.636;2022-11-18T01:22:15;6.00;99.90
52941;DHT22;62001;53.366;6.636;2022-11-18T01:24:41;6.00;99.90
52941;DHT22;62001;53.366;6.636;2022-11-18T01:27:07;6.00;99.90
52941;DHT22;62001;53.366;6.636;2022-11-18T01:29:33;5.90;99.90
52941;DHT22;62001;53.366;6.636;2022-11-18T01:31:59;5.90;99.90
52941;DHT22;62001;53.366;6.636;2022-11-18T01:34:27;6.00;99.90
52941;DHT22;62001;53.366;6.636;2022-11-18T01:36:53;5.90;99.90
52941;DHT22;62001;53.366;6.636;2022-11-18T01:39:21;5.90;99.90
52941;DHT22;62001;53.366;6.636;2022-11-18T01:41:46;5.90;99.90
52941;DHT22;62001;53.366;6.636;2022-11-18T01:47:15;5.90;99.90
52941;DHT22;62001;53.366;6.636;2022-11-18T01:49:41;5.90;99.90
52941;DHT22;62001;53.366;6.636;2022-11-18T01:52:08;5.90;99.90
52941;DHT22;62001;53.366;6.636;2022-11-18T01:54:37;5.90;99.90
52941;DHT22;62001;53.366;6.636;2022-11-18T01:57:14;5.90;99.90
52941;DHT22;62001;53.366;6.636;2022-11-18T01:59:43;5.90;99.90
52941;DHT22;62001;53.366;6.636;2022-11-18T02:02:13;5.90;99.90
52941;DHT22;62001;53.366;6.636;2022-11-18T02:04:42;5.90;99.90
52941;DHT22;62001;53.366;6.636;2022-11-18T02:07:09;5.90;99.90
52941;DHT22;62001;53.366;6.636;2022-11-18T02:09:36;5.90;99.90
52941;DHT22;62001;53.366;6.636;2022-11-18T02:12:04;5.90;99.90
52941;DHT22;62001;53.366;6.636;2022-11-18T02:14:36;5.90;99.90
52941;DHT22;62001;53.366;6.636;2022-11-18T02:20:27;5.80;99.90
52941;DHT22;62001;53.366;6.636;2022-11-18T02:31:06;5.80;99.90
52941;DHT22;62001;53.366;6.636;2022-11-18T02:33:42;5.80;99.90
52941;DHT22;62001;53.366;6.636;2022-11-18T02:36:17;5.80;99.90
52941;DHT22;62001;53.366;6.636;2022-11-18T02:38:47;5.80;99.90
52941;DHT22;62001;53.366;6.636;2022-11-18T02:41:19;5.80;99.90
52941;DHT22;62001;53.366;6.636;2022-11-18T02:43:55;5.80;99.90
52941;DHT22;62001;53.366;6.636;2022-11-18T02:46:26;5.80;99.90
52941;DHT22;62001;53.366;6.636;2022-11-18T02:48:54;5.80;99.90
52941;DHT22;62001;53.366;6.636;2022-11-18T02:51:26;5.80;99.90
52941;DHT22;62001;53.366;6.636;2022-11-18T02:53:55;5.80;99.90
52941;DHT22;62001;53.366;6.636;2022-11-18T02:56:23;5.70;99.90
52941;DHT22;62001;53.366;6.636;2022-11-18T02:58:50;5.80;99.90
52941;DHT22;62001;53.366;6.636;2022-11-18T03:01:19;5.80;99.90
52941;DHT22;62001;53.366;6.636;2022-11-18T03:03:46;5.80;99.90
52941;DHT22;62001;53.366;6.636;2022-11-18T03:11:31;5.70;99.90
52941;DHT22;62001;53.366;6.636;2022-11-18T03:17:20;5.70;99.90
52941;DHT22;62001;53.366;6.636;2022-11-18T03:22:19;5.70;99.90
52941;DHT22;62001;53.366;6.636;2022-11-18T03:27:33;5.70;99.90
52941;DHT22;62001;53.366;6.636;2022-11-18T03:30:07;5.70;99.90
52941;DHT22;62001;53.366;6.636;2022-11-18T03:32:37;5.60;99.90
52941;DHT22;62001;53.366;6.636;2022-11-18T03:35:14;5.60;99.90
52941;DHT22;62001;53.366;6.636;2022-11-18T03:37:43;5.70;99.90
52941;DHT22;62001;53.366;6.636;2022-11-18T03:40:22;5.60;99.90
52941;DHT22;62001;53.366;6.636;2022-11-18T03:43:25;5.60;99.90
52941;DHT22;62001;53.366;6.636;2022-11-18T03:45:46;5.60;99.90
52941;DHT22;62001;53.366;6.636;2022-11-18T03:48:18;5.60;99.90
52941;DHT22;62001;53.366;6.636;2022-11-18T03:50:50;5.60;99.90
52941;DHT22;62001;53.366;6.636;2022-11-18T03:53:18;5.60;99.90
52941;DHT22;62001;53.366;6.636;2022-11-18T03:55:49;5.60;99.90
52941;DHT22;62001;53.366;6.636;2022-11-18T03:58:35;5.60;99.90
52941;DHT22;62001;53.366;6.636;2022-11-18T04:01:12;5.60;99.90
52941;DHT22;62001;53.366;6.636;2022-11-18T04:03:39;5.50;99.90
52941;DHT22;62001;53.366;6.636;2022-11-18T04:06:26;5.60;99.90
52941;DHT22;62001;53.366;6.636;2022-11-18T04:08:58;5.60;99.90
52941;DHT22;62001;53.366;6.636;2022-11-18T04:11:32;5.50;99.90
52941;DHT22;62001;53.366;6.636;2022-11-18T04:14:19;5.50;99.90
52941;DHT22;62001;53.366;6.636;2022-11-18T04:16:50;5.50;99.90
52941;DHT22;62001;53.366;6.636;2022-11-18T04:19:17;5.60;99.90
52941;DHT22;62001;53.366;6.636;2022-11-18T04:21:43;5.50;99.90
52941;DHT22;62001;53.366;6.636;2022-11-18T04:24:09;5.50;99.90
52941;DHT22;62001;53.366;6.636;2022-11-18T04:26:35;5.50;99.90
52941;DHT22;62001;53.366;6.636;2022-11-18T04:29:00;5.50;99.90
52941;DHT22;62001;53.366;6.636;2022-11-18T04:31:26;5.50;99.90
52941;DHT22;62001;53.366;6.636;2022-11-18T04:33:52;5.60;99.90
52941;DHT22;62001;53.366;6.636;2022-11-18T04:36:18;5.50;99.90
52941;DHT22;62001;53.366;6.636;2022-11-18T04:38:44;5.60;99.90
52941;DHT22;62001;53.366;6.636;2022-11-18T04:41:10;5.60;99.90
52941;DHT22;62001;53.366;6.636;2022-11-18T04:43:36;5.50;99.90
52941;DHT22;62001;53.366;6.636;2022-11-18T04:46:02;5.50;99.90
52941;DHT22;62001;53.366;6.636;2022-11-18T04:48:27;5.50;99.90
52941;DHT22;62001;53.366;6.636;2022-11-18T04:50:56;5.50;99.90
52941;DHT22;62001;53.366;6.636;2022-11-18T04:53:22;5.50;99.90
52941;DHT22;62001;53.366;6.636;2022-11-18T04:55:48;5.50;99.90
52941;DHT22;62001;53.366;6.636;2022-11-18T04:58:14;5.50;99.90
52941;DHT22;62001;53.366;6.636;2022-11-18T05:00:39;5.50;99.90
52941;DHT22;62001;53.366;6.636;2022-11-18T05:03:05;5.50;99.90
52941;DHT22;62001;53.366;6.636;2022-11-18T05:05:33;5.50;99.90
52941;DHT22;62001;53.366;6.636;2022-11-18T05:07:59;5.50;99.90
52941;DHT22;62001;53.366;6.636;2022-11-18T05:10:24;5.50;99.90
52941;DHT22;62001;53.366;6.636;2022-11-18T05:12:50;5.50;99.90
52941;DHT22;62001;53.366;6.636;2022-11-18T05:15:20;5.50;99.90
52941;DHT22;62001;53.366;6.636;2022-11-18T05:17:48;5.50;99.90
52941;DHT22;62001;53.366;6.636;2022-11-18T05:20:15;5.50;99.90
52941;DHT22;62001;53.366;6.636;2022-11-18T05:22:41;5.40;99.90
52941;DHT22;62001;53.366;6.636;2022-11-18T05:25:07;5.40;99.90
52941;DHT22;62001;53.366;6.636;2022-11-18T05:27:33;5.50;99.90
52941;DHT22;62001;53.366;6.636;2022-11-18T05:29:59;5.40;99.90
52941;DHT22;62001;53.366;6.636;2022-11-18T05:32:25;5.40;99.90
52941;DHT22;62001;53.366;6.636;2022-11-18T05:34:51;5.40;99.90
52941;DHT22;62001;53.366;6.636;2022-11-18T05:37:16;5.40;99.90
52941;DHT22;62001;53.366;6.636;2022-11-18T05:39:42;5.40;99.90
52941;DHT22;62001;53.366;6.636;2022-11-18T05:42:09;5.40;99.90
52941;DHT22;62001;53.366;6.636;2022-11-18T05:44:53;5.40;99.90
52941;DHT22;62001;53.366;6.636;2022-11-18T05:47:19;5.40;99.90
52941;DHT22;62001;53.366;6.636;2022-11-18T05:49:45;5.40;99.90
52941;DHT22;62001;53.366;6.636;2022-11-18T05:52:11;5.40;99.90
52941;DHT22;62001;53.366;6.636;2022-11-18T05:54:47;5.40;99.90
52941;DHT22;62001;53.366;6.636;2022-11-18T05:57:14;5.40;99.90
52941;DHT22;62001;53.366;6.636;2022-11-18T05:59:40;5.30;99.90
52941;DHT22;62001;53.366;6.636;2022-11-18T06:02:15;5.40;99.90
52941;DHT22;62001;53.366;6.636;2022-11-18T06:04:55;5.40;99.90
52941;DHT22;62001;53.366;6.636;2022-11-18T06:07:26;5.40;99.90
52941;DHT22;62001;53.366;6.636;2022-11-18T06:09:56;5.40;99.90
52941;DHT22;62001;53.366;6.636;2022-11-18T06:12:27;5.30;99.90
52941;DHT22;62001;53.366;6.636;2022-11-18T06:15:04;5.30;99.90
52941;DHT22;62001;53.366;6.636;2022-11-18T06:17:42;5.30;99.90
52941;DHT22;62001;53.366;6.636;2022-11-18T06:20:09;5.30;99.90
52941;DHT22;62001;53.366;6.636;2022-11-18T06:22:35;5.30;99.90
52941;DHT22;62001;53.366;6.636;2022-11-18T06:25:02;5.30;99.90
52941;DHT22;62001;53.366;6.636;2022-11-18T06:27:28;5.30;99.90
52941;DHT22;62001;53.366;6.636;2022-11-18T06:29:54;5.30;99.90
52941;DHT22;62001;53.366;6.636;2022-11-18T06:32:20;5.30;99.90
52941;DHT22;62001;53.366;6.636;2022-11-18T06:34:46;5.30;99.90
52941;DHT22;62001;53.366;6.636;2022-11-18T06:37:16;5.30;99.90
52941;DHT22;62001;53.366;6.636;2022-11-18T06:39:42;5.30;99.90
52941;DHT22;62001;53.366;6.636;2022-11-18T06:42:08;5.20;99.90
52941;DHT22;62001;53.366;6.636;2022-11-18T06:44:34;5.20;99.90
52941;DHT22;62001;53.366;6.636;2022-11-18T06:47:00;5.20;99.90
52941;DHT22;62001;53.366;6.636;2022-11-18T06:49:27;5.20;99.90
52941;DHT22;62001;53.366;6.636;2022-11-18T06:51:53;5.20;99.90
52941;DHT22;62001;53.366;6.636;2022-11-18T06:54:19;5.20;99.90
52941;DHT22;62001;53.366;6.636;2022-11-18T06:56:46;5.20;99.90
52941;DHT22;62001;53.366;6.636;2022-11-18T06:59:11;5.20;99.90
52941;DHT22;62001;53.366;6.636;2022-11-18T07:01:39;5.10;99.90
52941;DHT22;62001;53.366;6.636;2022-11-18T07:04:06;5.20;99.90
52941;DHT22;62001;53.366;6.636;2022-11-18T07:06:33;5.20;99.90
52941;DHT22;62001;53.366;6.636;2022-11-18T07:09:01;5.20;99.90
52941;DHT22;62001;53.366;6.636;2022-11-18T07:11:27;5.20;99.90
52941;DHT22;62001;53.366;6.636;2022-11-18T07:13:54;5.20;99.90
52941;DHT22;62001;53.366;6.636;2022-11-18T07:16:22;5.20;99.90
52941;DHT22;62001;53.366;6.636;2022-11-18T07:18:49;5.10;99.90
52941;DHT22;62001;53.366;6.636;2022-11-18T07:21:26;5.20;99.90
52941;DHT22;62001;53.366;6.636;2022-11-18T07:23:53;5.10;99.90
52941;DHT22;62001;53.366;6.636;2022-11-18T07:26:20;5.10;99.90
52941;DHT22;62001;53.366;6.636;2022-11-18T07:28:46;5.10;99.90
52941;DHT22;62001;53.366;6.636;2022-11-18T07:31:13;5.10;99.90
52941;DHT22;62001;53.366;6.636;2022-11-18T07:33:40;5.10;99.90
52941;DHT22;62001;53.366;6.636;2022-11-18T07:36:11;5.10;99.90
52941;DHT22;62001;53.366;6.636;2022-11-18T07:38:38;5.10;99.90
52941;DHT22;62001;53.366;6.636;2022-11-18T07:41:18;5.10;99.90
52941;DHT22;62001;53.366;6.636;2022-11-18T07:43:44;5.10;99.90
52941;DHT22;62001;53.366;6.636;2022-11-18T07:46:24;5.10;99.90
52941;DHT22;62001;53.366;6.636;2022-11-18T07:48:52;5.10;99.90
52941;DHT22;62001;53.366;6.636;2022-11-18T07:51:21;5.10;99.90
52941;DHT22;62001;53.366;6.636;2022-11-18T07:53:47;5.10;99.90
52941;DHT22;62001;53.366;6.636;2022-11-18T07:56:13;5.00;99.90
52941;DHT22;62001;53.366;6.636;2022-11-18T07:58:40;5.10;99.90
52941;DHT22;62001;53.366;6.636;2022-11-18T08:01:15;5.10;99.90
52941;DHT22;62001;53.366;6.636;2022-11-18T08:03:41;5.10;99.90
52941;DHT22;62001;53.366;6.636;2022-11-18T08:06:09;5.10;99.90
52941;DHT22;62001;53.366;6.636;2022-11-18T08:08:35;5.10;99.90
52941;DHT22;62001;53.366;6.636;2022-11-18T08:11:04;5.10;99.90
52941;DHT22;62001;53.366;6.636;2022-11-18T08:13:33;5.10;99.90
52941;DHT22;62001;53.366;6.636;2022-11-18T08:16:00;5.10;99.90
52941;DHT22;62001;53.366;6.636;2022-11-18T08:18:28;5.00;99.90
52941;DHT22;62001;53.366;6.636;2022-11-18T08:20:54;5.00;99.90
52941;DHT22;62001;53.366;6.636;2022-11-18T08:23:20;5.10;99.90
52941;DHT22;62001;53.366;6.636;2022-11-18T08:25:46;5.10;99.90
52941;DHT22;62001;53.366;6.636;2022-11-18T08:28:13;5.10;99.90
52941;DHT22;62001;53.366;6.636;2022-11-18T08:30:39;5.00;99.90
52941;DHT22;62001;53.366;6.636;2022-11-18T08:33:05;5.00;99.90
52941;DHT22;62001;53.366;6.636;2022-11-18T08:35:32;5.00;99.90
52941;DHT22;62001;53.366;6.636;2022-11-18T08:37:58;5.00;99.90
52941;DHT22;62001;53.366;6.636;2022-11-18T08:40:24;5.00;99.90
52941;DHT22;62001;53.366;6.636;2022-11-18T08:42:50;5.00;99.90
52941;DHT22;62001;53.366;6.636;2022-11-18T08:45:16;5.00;99.90
52941;DHT22;62001;53.366;6.636;2022-11-18T08:47:42;5.00;99.90
52941;DHT22;62001;53.366;6.636;2022-11-18T08:50:10;5.00;99.90
52941;DHT22;62001;53.366;6.636;2022-11-18T08:52:36;5.00;99.90
52941;DHT22;62001;53.366;6.636;2022-11-18T08:55:02;5.00;99.90
52941;DHT22;62001;53.366;6.636;2022-11-18T08:57:28;4.90;99.90
52941;DHT22;62001;53.366;6.636;2022-11-18T08:59:54;4.90;99.90
52941;DHT22;62001;53.366;6.636;2022-11-18T09:02:21;4.90;99.90
52941;DHT22;62001;53.366;6.636;2022-11-18T09:04:48;4.90;99.90
52941;DHT22;62001;53.366;6.636;2022-11-18T09:07:18;4.90;99.90
52941;DHT22;62001;53.366;6.636;2022-11-18T09:09:44;4.80;99.90
52941;DHT22;62001;53.366;6.636;2022-11-18T09:12:10;4.80;99.90
52941;DHT22;62001;53.366;6.636;2022-11-18T09:14:45;4.80;99.90
52941;DHT22;62001;53.366;6.636;2022-11-18T09:17:11;4.70;99.90
52941;DHT22;62001;53.366;6.636;2022-11-18T09:19:39;4.80;99.90
52941;DHT22;62001;53.366;6.636;2022-11-18T09:22:06;4.80;99.90
52941;DHT22;62001;53.366;6.636;2022-11-18T09:24:32;4.70;99.90
52941;DHT22;62001;53.366;6.636;2022-11-18T09:27:01;4.80;99.90
52941;DHT22;62001;53.366;6.636;2022-11-18T09:29:27;4.80;99.90
52941;DHT22;62001;53.366;6.636;2022-11-18T09:31:53;4.70;99.90
52941;DHT22;62001;53.366;6.636;2022-11-18T09:34:19;4.60;99.90
52941;DHT22;62001;53.366;6.636;2022-11-18T09:36:45;4.60;99.90
52941;DHT22;62001;53.366;6.636;2022-11-18T09:39:11;4.60;99.90
52941;DHT22;62001;53.366;6.636;2022-11-18T09:51:56;4.50;99.90
52941;DHT22;62001;53.366;6.636;2022-11-18T09:54:35;4.50;99.90
52941;DHT22;62001;53.366;6.636;2022-11-18T09:57:01;4.50;99.90
52941;DHT22;62001;53.366;6.636;2022-11-18T09:59:30;4.50;99.90
52941;DHT22;62001;53.366;6.636;2022-11-18T10:02:19;4.40;99.90
52941;DHT22;62001;53.366;6.636;2022-11-18T10:04:47;4.40;99.90
52941;DHT22;62001;53.366;6.636;2022-11-18T10:08:11;4.30;99.90
52941;DHT22;62001;53.366;6.636;2022-11-18T10:10:16;4.30;99.90
52941;DHT22;62001;53.366;6.636;2022-11-18T10:13:14;4.30;99.90
52941;DHT22;62001;53.366;6.636;2022-11-18T10:15:41;4.20;99.90
52941;DHT22;62001;53.366;6.636;2022-11-18T10:18:40;4.20;99.90
52941;DHT22;62001;53.366;6.636;2022-11-18T10:23:58;4.10;99.90
52941;DHT22;62001;53.366;6.636;2022-11-18T10:26:36;4.10;99.90
52941;DHT22;62001;53.366;6.636;2022-11-18T10:29:02;4.10;99.90
52941;DHT22;62001;53.366;6.636;2022-11-18T10:31:29;4.10;99.90
52941;DHT22;62001;53.366;6.636;2022-11-18T10:33:59;4.10;99.90
52941;DHT22;62001;53.366;6.636;2022-11-18T10:36:27;4.10;99.90
52941;DHT22;62001;53.366;6.636;2022-11-18T10:39:12;4.10;99.90
52941;DHT22;62001;53.366;6.636;2022-11-18T10:41:43;4.10;99.90
52941;DHT22;62001;53.366;6.636;2022-11-18T10:44:34;4.10;99.90
52941;DHT22;62001;53.366;6.636;2022-11-18T10:47:28;4.00;99.90
52941;DHT22;62001;53.366;6.636;2022-11-18T10:49:57;4.00;99.90
52941;DHT22;62001;53.366;6.636;2022-11-18T10:52:24;4.00;99.90
52941;DHT22;62001;53.366;6.636;2022-11-18T10:57:40;4.00;99.90
52941;DHT22;62001;53.366;6.636;2022-11-18T11:00:33;4.00;99.90
52941;DHT22;62001;53.366;6.636;2022-11-18T11:03:02;3.90;99.90
52941;DHT22;62001;53.366;6.636;2022-11-18T11:05:39;3.90;99.90
52941;DHT22;62001;53.366;6.636;2022-11-18T11:08:18;3.90;99.90
52941;DHT22;62001;53.366;6.636;2022-11-18T11:11:02;3.90;99.90
52941;DHT22;62001;53.366;6.636;2022-11-18T11:13:29;3.90;99.90
52941;DHT22;62001;53.366;6.636;2022-11-18T11:16:00;3.90;99.90
52941;DHT22;62001;53.366;6.636;2022-11-18T11:18:33;3.90;99.90
52941;DHT22;62001;53.366;6.636;2022-11-18T11:21:18;3.80;99.90
52941;DHT22;62001;53.366;6.636;2022-11-18T11:23:45;3.80;99.90
52941;DHT22;62001;53.366;6.636;2022-11-18T11:26:40;3.80;99.90
52941;DHT22;62001;53.366;6.636;2022-11-18T11:34:27;3.80;99.90
52941;DHT22;62001;53.366;6.636;2022-11-18T11:37:09;3.70;99.90
52941;DHT22;62001;53.366;6.636;2022-11-18T11:40:02;3.80;99.90
52941;DHT22;62001;53.366;6.636;2022-11-18T11:45:24;3.70;99.90
52941;DHT22;62001;53.366;6.636;2022-11-18T11:56:23;3.70;99.90
52941;DHT22;62001;53.366;6.636;2022-11-18T12:04:43;3.60;99.90
52941;DHT22;62001;53.366;6.636;2022-11-18T12:07:27;3.60;99.90
52941;DHT22;62001;53.366;6.636;2022-11-18T12:10:27;3.60;99.90
52941;DHT22;62001;53.366;6.636;2022-11-18T12:24:31;3.50;99.90
52941;DHT22;62001;53.366;6.636;2022-11-18T12:27:03;3.50;99.90
52941;DHT22;62001;53.366;6.636;2022-11-18T12:29:51;3.50;99.90
52941;DHT22;62001;53.366;6.636;2022-11-18T12:32:38;3.50;99.90
52941;DHT22;62001;53.366;6.636;2022-11-18T12:35:26;3.50;99.90
52941;DHT22;62001;53.366;6.636;2022-11-18T12:40:41;3.50;99.90
52941;DHT22;62001;53.366;6.636;2022-11-18T12:48:56;3.50;99.90
52941;DHT22;62001;53.366;6.636;2022-11-18T12:53:50;3.50;99.90
52941;DHT22;62001;53.366;6.636;2022-11-18T12:58:53;3.50;99.90
52941;DHT22;62001;53.366;6.636;2022-11-18T13:01:25;3.50;99.90
52941;DHT22;62001;53.366;6.636;2022-11-18T13:04:06;3.50;99.90
52941;DHT22;62001;53.366;6.636;2022-11-18T13:06:37;3.60;99.90
52941;DHT22;62001;53.366;6.636;2022-11-18T13:09:04;3.50;99.90
52941;DHT22;62001;53.366;6.636;2022-11-18T13:11:42;3.50;99.90
52941;DHT22;62001;53.366;6.636;2022-11-18T13:14:27;3.50;99.90
52941;DHT22;62001;53.366;6.636;2022-11-18T13:17:40;3.50;99.90
52941;DHT22;62001;53.366;6.636;2022-11-18T13:20:27;3.50;99.90
52941;DHT22;62001;53.366;6.636;2022-11-18T13:25:45;3.40;99.90
52941;DHT22;62001;53.366;6.636;2022-11-18T13:31:33;3.30;99.90
52941;DHT22;62001;53.366;6.636;2022-11-18T13:33:36;3.30;99.90
52941;DHT22;62001;53.366;6.636;2022-11-18T13:36:11;3.30;99.90
52941;DHT22;62001;53.366;6.636;2022-11-18T13:38:37;3.30;99.90
52941;DHT22;62001;53.366;6.636;2022-11-18T13:41:18;3.30;99.90
52941;DHT22;62001;53.366;6.636;2022-11-18T13:43:48;3.30;99.90
52941;DHT22;62001;53.366;6.636;2022-11-18T13:46:18;3.40;99.90
52941;DHT22;62001;53.366;6.636;2022-11-18T13:48:56;3.30;99.90
52941;DHT22;62001;53.366;6.636;2022-11-18T13:51:23;3.30;99.90
52941;DHT22;62001;53.366;6.636;2022-11-18T13:53:49;3.30;99.90
52941;DHT22;62001;53.366;6.636;2022-11-18T13:56:17;3.30;99.90
52941;DHT22;62001;53.366;6.636;2022-11-18T14:01:21;3.30;99.90
52941;DHT22;62001;53.366;6.636;2022-11-18T14:03:50;3.30;99.90
52941;DHT22;62001;53.366;6.636;2022-11-18T14:06:37;3.30;99.90
52941;DHT22;62001;53.366;6.636;2022-11-18T14:09:23;3.30;99.90
52941;DHT22;62001;53.366;6.636;2022-11-18T14:14:39;3.20;99.90
52941;DHT22;62001;53.366;6.636;2022-11-18T14:17:26;3.30;99.90
52941;DHT22;62001;53.366;6.636;2022-11-18T14:19:55;3.20;99.90
52941;DHT22;62001;53.366;6.636;2022-11-18T14:25:02;3.30;99.90
52941;DHT22;62001;53.366;6.636;2022-11-18T14:29:57;3.20;99.90
52941;DHT22;62001;53.366;6.636;2022-11-18T14:32:26;3.20;99.90
52941;DHT22;62001;53.366;6.636;2022-11-18T14:35:01;3.20;99.90
52941;DHT22;62001;53.366;6.636;2022-11-18T14:37:26;3.20;99.90
52941;DHT22;62001;53.366;6.636;2022-11-18T14:39:54;3.20;99.90
52941;DHT22;62001;53.366;6.636;2022-11-18T14:42:20;3.10;99.90
52941;DHT22;62001;53.366;6.636;2022-11-18T14:44:48;3.10;99.90
52941;DHT22;62001;53.366;6.636;2022-11-18T14:47:29;3.10;99.90
52941;DHT22;62001;53.366;6.636;2022-11-18T14:49:55;3.10;99.90
52941;DHT22;62001;53.366;6.636;2022-11-18T14:52:20;3.10;99.90
52941;DHT22;62001;53.366;6.636;2022-11-18T14:54:46;3.00;99.90
52941;DHT22;62001;53.366;6.636;2022-11-18T14:57:15;3.00;99.90
52941;DHT22;62001;53.366;6.636;2022-11-18T14:59:42;3.00;99.90
52941;DHT22;62001;53.366;6.636;2022-11-18T15:02:15;3.00;99.90
52941;DHT22;62001;53.366;6.636;2022-11-18T15:04:42;3.00;99.90
52941;DHT22;62001;53.366;6.636;2022-11-18T15:07:14;3.00;99.90
52941;DHT22;62001;53.366;6.636;2022-11-18T15:09:40;3.10;99.90
52941;DHT22;62001;53.366;6.636;2022-11-18T15:12:08;3.10;99.90
52941;DHT22;62001;53.366;6.636;2022-11-18T15:14:35;3.10;99.90
52941;DHT22;62001;53.366;6.636;2022-11-18T15:17:02;3.10;99.90
52941;DHT22;62001;53.366;6.636;2022-11-18T15:19:28;3.10;99.90
52941;DHT22;62001;53.366;6.636;2022-11-18T15:21:54;3.10;99.90
52941;DHT22;62001;53.366;6.636;2022-11-18T15:24:20;3.10;99.90
52941;DHT22;62001;53.366;6.636;2022-11-18T15:26:47;3.10;99.90
52941;DHT22;62001;53.366;6.636;2022-11-18T15:29:21;3.00;99.90
52941;DHT22;62001;53.366;6.636;2022-11-18T15:31:48;3.00;99.90
52941;DHT22;62001;53.366;6.636;2022-11-18T15:34:14;3.00;99.90
52941;DHT22;62001;53.366;6.636;2022-11-18T15:36:41;3.00;99.90
52941;DHT22;62001;53.366;6.636;2022-11-18T15:39:09;3.00;99.90
52941;DHT22;62001;53.366;6.636;2022-11-18T15:41:37;3.00;99.90
52941;DHT22;62001;53.366;6.636;2022-11-18T15:44:03;3.00;99.90
52941;DHT22;62001;53.366;6.636;2022-11-18T15:46:29;3.00;99.90
52941;DHT22;62001;53.366;6.636;2022-11-18T15:48:58;3.00;99.90
52941;DHT22;62001;53.366;6.636;2022-11-18T15:51:25;3.00;99.90
52941;DHT22;62001;53.366;6.636;2022-11-18T15:53:52;3.00;99.90
52941;DHT22;62001;53.366;6.636;2022-11-18T15:59:03;3.00;99.90
52941;DHT22;62001;53.366;6.636;2022-11-18T16:01:32;3.00;99.90
52941;DHT22;62001;53.366;6.636;2022-11-18T16:03:58;3.00;99.90
52941;DHT22;62001;53.366;6.636;2022-11-18T16:06:25;3.00;99.90
52941;DHT22;62001;53.366;6.636;2022-11-18T16:08:51;3.00;99.90
52941;DHT22;62001;53.366;6.636;2022-11-18T16:11:17;2.90;99.90
52941;DHT22;62001;53.366;6.636;2022-11-18T16:14:03;2.90;99.90
52941;DHT22;62001;53.366;6.636;2022-11-18T16:16:30;2.90;99.90
52941;DHT22;62001;53.366;6.636;2022-11-18T16:18:57;2.90;99.90
52941;DHT22;62001;53.366;6.636;2022-11-18T16:21:24;2.90;99.90
52941;DHT22;62001;53.366;6.636;2022-11-18T16:23:53;2.80;99.90
52941;DHT22;62001;53.366;6.636;2022-11-18T16:26:19;2.90;99.90
52941;DHT22;62001;53.366;6.636;2022-11-18T16:28:45;2.80;99.90
52941;DHT22;62001;53.366;6.636;2022-11-18T16:31:11;2.80;99.90
52941;DHT22;62001;53.366;6.636;2022-11-18T16:33:55;2.80;99.90
52941;DHT22;62001;53.366;6.636;2022-11-18T16:36:25;2.80;99.90
52941;DHT22;62001;53.366;6.636;2022-11-18T16:38:52;2.80;99.90
52941;DHT22;62001;53.366;6.636;2022-11-18T16:41:17;2.70;99.90
52941;DHT22;62001;53.366;6.636;2022-11-18T16:43:56;2.70;99.90
52941;DHT22;62001;53.366;6.636;2022-11-18T16:46:23;2.70;99.90
52941;DHT22;62001;53.366;6.636;2022-11-18T16:48:49;2.70;99.90
52941;DHT22;62001;53.366;6.636;2022-11-18T16:56:21;2.70;99.90
52941;DHT22;62001;53.366;6.636;2022-11-18T16:58:47;2.70;99.90
52941;DHT22;62001;53.366;6.636;2022-11-18T17:01:14;2.70;99.90
52941;DHT22;62001;53.366;6.636;2022-11-18T17:03:40;2.70;99.90
52941;DHT22;62001;53.366;6.636;2022-11-18T17:06:07;2.70;99.90
52941;DHT22;62001;53.366;6.636;2022-11-18T17:08:34;2.60;99.90
52941;DHT22;62001;53.366;6.636;2022-11-18T17:11:08;2.60;99.90
52941;DHT22;62001;53.366;6.636;2022-11-18T17:13:35;2.60;99.90
52941;DHT22;62001;53.366;6.636;2022-11-18T17:16:18;2.60;99.90
52941;DHT22;62001;53.366;6.636;2022-11-18T17:18:45;2.50;99.90
52941;DHT22;62001;53.366;6.636;2022-11-18T17:21:16;2.50;99.90
52941;DHT22;62001;53.366;6.636;2022-11-18T17:23:45;2.60;99.90
52941;DHT22;62001;53.366;6.636;2022-11-18T17:26:13;2.50;99.90
52941;DHT22;62001;53.366;6.636;2022-11-18T17:28:40;2.50;99.90
52941;DHT22;62001;53.366;6.636;2022-11-18T17:31:08;2.50;99.90
52941;DHT22;62001;53.366;6.636;2022-11-18T17:33:34;2.50;99.90
52941;DHT22;62001;53.366;6.636;2022-11-18T17:38:35;2.50;99.90
52941;DHT22;62001;53.366;6.636;2022-11-18T17:41:01;2.50;99.90
52941;DHT22;62001;53.366;6.636;2022-11-18T17:43:27;2.50;99.90
52941;DHT22;62001;53.366;6.636;2022-11-18T17:45:55;2.50;99.90
52941;DHT22;62001;53.366;6.636;2022-11-18T17:48:22;2.50;99.90
52941;DHT22;62001;53.366;6.636;2022-11-18T17:50:48;2.50;99.90
52941;DHT22;62001;53.366;6.636;2022-11-18T17:53:14;2.40;99.90
52941;DHT22;62001;53.366;6.636;2022-11-18T17:55:41;2.40;99.90
52941;DHT22;62001;53.366;6.636;2022-11-18T17:58:07;2.40;99.90
52941;DHT22;62001;53.366;6.636;2022-11-18T18:00:34;2.40;99.90